createdAt,value
2018-08-17T00:02:00.569Z,99717.17
2018-08-17T00:04:28.305Z,99717.67
2018-08-17T00:06:56.077Z,99715.57
2018-08-17T00:09:23.751Z,99704.00
2018-08-17T00:11:51.405Z,99710.00
2018-08-17T00:14:19.097Z,99704.58
2018-08-17T00:16:46.993Z,99711.41
2018-08-17T00:19:14.728Z,99708.09
2018-08-17T00:21:42.408Z,99703.16
2018-08-17T00:24:10.149Z,99703.68
2018-08-17T00:26:37.818Z,99699.47
2018-08-17T00:29:05.508Z,99698.72
2018-08-17T00:31:33.120Z,99699.09
2018-08-17T00:34:00.752Z,99694.78
2018-08-17T00:36:28.452Z,99700.66
2018-08-17T00:38:56.129Z,99706.16
2018-08-17T00:41:30.648Z,99701.00
2018-08-17T00:43:58.348Z,99691.46
2018-08-17T00:46:26.030Z,99695.38
2018-08-17T00:48:53.740Z,99695.09
2018-08-17T00:51:21.414Z,99699.06
2018-08-17T00:53:49.090Z,99693.92
2018-08-17T00:56:16.754Z,99695.37
2018-08-17T00:58:44.414Z,99696.17
2018-08-17T01:01:12.162Z,99696.50
2018-08-17T01:03:39.878Z,99695.17
2018-08-17T01:06:07.500Z,99696.30
2018-08-17T01:08:35.242Z,99700.61
2018-08-17T01:11:02.915Z,99702.95
2018-08-17T01:13:30.593Z,99700.39
2018-08-17T01:15:58.267Z,99697.30
2018-08-17T01:18:25.937Z,99700.11
2018-08-17T01:20:53.579Z,99690.79
2018-08-17T01:23:21.257Z,99703.95
2018-08-17T01:25:48.889Z,99700.16
2018-08-17T01:28:16.571Z,99695.42
2018-08-17T01:30:44.204Z,99700.62
2018-08-17T01:33:11.845Z,99699.14
2018-08-17T01:35:39.494Z,99697.56
2018-08-17T01:38:07.157Z,99702.48
2018-08-17T01:40:34.744Z,99701.88
2018-08-17T01:43:02.406Z,99701.40
2018-08-17T01:45:30.070Z,99700.77
2018-08-17T01:47:57.710Z,99699.13
2018-08-17T01:50:25.368Z,99700.16
2018-08-17T01:52:52.982Z,99701.69
2018-08-17T01:55:20.674Z,99705.38
2018-08-17T01:57:48.314Z,99700.56
2018-08-17T02:00:16.011Z,99703.89
2018-08-17T02:02:43.637Z,99697.41
2018-08-17T02:05:11.333Z,99698.78
2018-08-17T02:07:38.996Z,99701.91
2018-08-17T02:10:09.077Z,99694.95
2018-08-17T02:12:37.141Z,99697.45
2018-08-17T02:15:04.895Z,99699.29
2018-08-17T02:17:32.614Z,99694.47
2018-08-17T02:20:00.241Z,99692.20
2018-08-17T02:22:27.963Z,99690.70
2018-08-17T02:24:55.593Z,99693.87
2018-08-17T02:27:23.292Z,99687.06
2018-08-17T02:29:51.199Z,99685.06
2018-08-17T02:32:18.969Z,99689.39
2018-08-17T02:34:46.794Z,99690.22
2018-08-17T02:37:14.450Z,99697.20
2018-08-17T02:39:42.089Z,99690.22
2018-08-17T02:42:09.745Z,99691.72
2018-08-17T02:44:37.539Z,99691.64
2018-08-17T02:47:05.221Z,99694.59
2018-08-17T02:49:32.894Z,99693.14
2018-08-17T02:52:00.658Z,99689.98
2018-08-17T02:54:28.564Z,99689.59
2018-08-17T02:56:56.244Z,99691.09
2018-08-17T02:59:23.963Z,99693.27
2018-08-17T03:01:51.610Z,99688.94
2018-08-17T03:04:19.368Z,99686.56
2018-08-17T03:06:47.154Z,99681.96
2018-08-17T03:09:14.827Z,99685.41
2018-08-17T03:11:42.512Z,99684.57
2018-08-17T03:14:10.282Z,99683.28
2018-08-17T03:16:37.916Z,99679.95
2018-08-17T03:19:05.556Z,99685.56
2018-08-17T03:21:33.182Z,99684.28
2018-08-17T03:24:00.774Z,99686.94
2018-08-17T03:26:28.436Z,99686.28
2018-08-17T03:28:56.116Z,99693.75
2018-08-17T03:31:23.808Z,99685.45
2018-08-17T03:33:51.474Z,99696.09
2018-08-17T03:36:19.247Z,99693.42
2018-08-17T03:38:46.988Z,99692.92
2018-08-17T03:41:14.763Z,99690.48
2018-08-17T03:43:42.543Z,99700.24
2018-08-17T03:46:10.311Z,99694.30
2018-08-17T03:48:37.985Z,99693.75
2018-08-17T03:51:05.741Z,99693.05
2018-08-17T03:53:33.443Z,99696.87
2018-08-17T03:56:01.201Z,99702.69
2018-08-17T03:58:28.917Z,99697.05
2018-08-17T04:00:56.641Z,99700.03
2018-08-17T04:03:24.267Z,99702.67
2018-08-17T04:05:51.946Z,99700.02
2018-08-17T04:08:19.584Z,99708.00
2018-08-17T04:10:47.252Z,99704.18
2018-08-17T04:13:14.845Z,99706.84
2018-08-17T04:15:42.463Z,99708.34
2018-08-17T04:18:10.155Z,99710.66
2018-08-17T04:20:38.130Z,99713.48
2018-08-17T04:23:06.166Z,99712.30
2018-08-17T04:25:33.756Z,99711.93
2018-08-17T04:28:01.572Z,99715.86
2018-08-17T04:30:29.360Z,99716.14
2018-08-17T04:32:57.004Z,99717.30
2018-08-17T04:35:24.756Z,99714.81
2018-08-17T04:37:52.342Z,99717.80
2018-08-17T04:40:20.072Z,99721.41
2018-08-17T04:42:47.687Z,99725.17
2018-08-17T04:45:15.486Z,99723.80
2018-08-17T04:47:43.166Z,99727.12
2018-08-17T04:50:10.910Z,99722.73
2018-08-17T04:52:39.458Z,99722.55
2018-08-17T04:55:07.580Z,99713.45
2018-08-17T04:57:35.602Z,99721.91
2018-08-17T05:00:05.100Z,99717.57
2018-08-17T05:02:32.721Z,99727.52
2018-08-17T05:05:00.408Z,99729.56
2018-08-17T05:07:28.073Z,99727.23
2018-08-17T05:09:55.766Z,99729.48
2018-08-17T05:12:23.438Z,99733.44
2018-08-17T05:14:51.062Z,99729.19
2018-08-17T05:17:18.721Z,99725.02
2018-08-17T05:19:46.397Z,99734.94
2018-08-17T05:22:14.012Z,99735.01
2018-08-17T05:24:41.648Z,99733.23
2018-08-17T05:27:09.272Z,99732.08
2018-08-17T05:29:36.947Z,99741.99
2018-08-17T05:32:04.931Z,99736.41
2018-08-17T05:34:32.605Z,99742.37
2018-08-17T05:37:00.231Z,99741.92
2018-08-17T05:39:27.965Z,99745.63
2018-08-17T05:41:55.774Z,99750.33
2018-08-17T05:44:23.415Z,99745.12
2018-08-17T05:46:51.057Z,99744.85
2018-08-17T05:49:18.693Z,99744.66
2018-08-17T05:51:46.397Z,99740.27
2018-08-17T05:54:14.045Z,99736.25
2018-08-17T05:56:41.754Z,99740.97
2018-08-17T05:59:09.327Z,99746.66
2018-08-17T06:01:37.061Z,99741.08
2018-08-17T06:04:05.236Z,99746.52
2018-08-17T06:06:32.917Z,99736.59
2018-08-17T06:09:00.610Z,99743.94
2018-08-17T06:11:28.393Z,99742.89
2018-08-17T06:13:56.029Z,99744.95
2018-08-17T06:16:23.668Z,99742.20
2018-08-17T06:18:51.546Z,99744.04
2018-08-17T06:21:19.134Z,99737.86
2018-08-17T06:23:46.868Z,99742.66
2018-08-17T06:26:14.529Z,99738.23
2018-08-17T06:28:42.164Z,99738.18
2018-08-17T06:31:09.805Z,99730.16
2018-08-17T06:33:37.456Z,99736.27
2018-08-17T06:36:05.296Z,99741.20
2018-08-17T06:38:32.887Z,99736.03
2018-08-17T06:41:00.507Z,99736.50
2018-08-17T06:43:28.213Z,99735.96
2018-08-17T06:45:55.921Z,99739.36
2018-08-17T06:48:23.612Z,99739.91
2018-08-17T06:50:51.379Z,99735.70
2018-08-17T06:53:18.991Z,99739.16
2018-08-17T06:55:46.654Z,99741.28
2018-08-17T06:58:14.419Z,99740.25
2018-08-17T07:00:42.086Z,99740.56
2018-08-17T07:03:09.758Z,99743.95
2018-08-17T07:05:37.449Z,99746.92
2018-08-17T07:08:05.212Z,99736.53
2018-08-17T07:10:32.868Z,99743.65
2018-08-17T07:13:00.542Z,99744.02
2018-08-17T07:15:28.291Z,99747.31
2018-08-17T07:17:55.979Z,99747.63
2018-08-17T07:20:23.642Z,99747.82
2018-08-17T07:22:51.359Z,99747.71
2018-08-17T07:25:19.116Z,99750.45
2018-08-17T07:27:47.045Z,99750.63
2018-08-17T07:30:14.637Z,99749.33
2018-08-17T07:32:42.333Z,99757.81
2018-08-17T07:35:10.457Z,99753.07
2018-08-17T07:37:38.170Z,99761.12
2018-08-17T07:40:06.111Z,99766.53
2018-08-17T07:42:33.793Z,99768.53
2018-08-17T07:45:01.432Z,99763.14
2018-08-17T07:47:29.191Z,99762.25
2018-08-17T07:49:56.799Z,99767.36
2018-08-17T07:52:24.429Z,99753.17
2018-08-17T07:54:52.102Z,99762.35
2018-08-17T07:57:19.786Z,99766.77
2018-08-17T07:59:47.729Z,99769.52
2018-08-17T08:02:15.412Z,99769.84
2018-08-17T08:04:43.123Z,99763.59
2018-08-17T08:07:10.787Z,99760.21
2018-08-17T08:09:38.508Z,99759.00
2018-08-17T08:12:06.435Z,99758.03
2018-08-17T08:14:34.014Z,99761.95
2018-08-17T08:17:01.594Z,99764.58
2018-08-17T08:19:29.205Z,99754.48
2018-08-17T08:21:57.605Z,99761.77
2018-08-17T08:24:25.228Z,99766.75
2018-08-17T08:26:52.909Z,99760.66
2018-08-17T08:29:20.523Z,99760.06
2018-08-17T08:31:48.181Z,99761.59
2018-08-17T08:34:15.857Z,99762.96
2018-08-17T08:36:43.642Z,99760.36
2018-08-17T08:39:12.677Z,99766.53
2018-08-17T08:41:40.501Z,99764.75
2018-08-17T08:44:08.153Z,99768.93
2018-08-17T08:46:36.475Z,99766.00
2018-08-17T08:49:04.405Z,99765.09
2018-08-17T08:51:32.028Z,99765.82
2018-08-17T08:53:59.656Z,99761.22
2018-08-17T08:56:27.294Z,99767.56
2018-08-17T08:58:54.954Z,99770.72
2018-08-17T09:01:22.549Z,99762.53
2018-08-17T09:03:50.170Z,99769.38
2018-08-17T09:06:17.814Z,99769.22
2018-08-17T09:08:45.458Z,99769.17
2018-08-17T09:11:13.167Z,99767.70
2018-08-17T09:13:40.835Z,99764.63
2018-08-17T09:16:08.488Z,99768.48
2018-08-17T09:18:36.129Z,99761.99
2018-08-17T09:21:03.778Z,99760.84
2018-08-17T09:23:31.382Z,99757.31
2018-08-17T09:25:59.043Z,99759.50
2018-08-17T09:28:27.017Z,99760.42
2018-08-17T09:30:54.709Z,99764.97
2018-08-17T09:33:22.297Z,99758.81
2018-08-17T09:35:50.471Z,99758.06
2018-08-17T09:38:18.097Z,99750.39
2018-08-17T09:40:45.721Z,99748.53
2018-08-17T09:43:13.285Z,99746.86
2018-08-17T09:45:40.841Z,99746.73
2018-08-17T09:48:08.752Z,99743.25
2018-08-17T09:50:36.989Z,99741.27
2018-08-17T09:53:05.364Z,99739.27
2018-08-17T09:55:33.069Z,99732.86
2018-08-17T09:58:01.258Z,99730.16
2018-08-17T10:00:34.936Z,99733.70
2018-08-17T10:03:08.349Z,99726.37
2018-08-17T10:05:36.803Z,99721.48
2018-08-17T10:08:10.424Z,99721.19
2018-08-17T10:10:38.098Z,99712.49
2018-08-17T10:13:05.995Z,99712.00
2018-08-17T10:15:34.517Z,99718.80
2018-08-17T10:18:02.154Z,99716.08
2018-08-17T10:20:30.718Z,99716.33
2018-08-17T10:22:58.306Z,99719.82
2018-08-17T10:25:26.228Z,99720.11
2018-08-17T10:27:55.642Z,99717.34
2018-08-17T10:30:23.831Z,99723.98
2018-08-17T10:32:58.594Z,99716.20
2018-08-17T10:35:29.573Z,99718.89
2018-08-17T10:37:58.453Z,99719.05
2018-08-17T10:40:26.183Z,99717.80
2018-08-17T10:42:54.296Z,99720.09
2018-08-17T10:45:23.033Z,99723.74
2018-08-17T10:47:51.339Z,99720.71
2018-08-17T10:50:26.306Z,99712.22
2018-08-17T10:52:55.360Z,99706.28
2018-08-17T10:55:28.928Z,99709.01
2018-08-17T10:57:56.693Z,99709.75
2018-08-17T11:00:24.309Z,99708.39
2018-08-17T11:02:52.013Z,99706.61
2018-08-17T11:05:19.664Z,99707.75
2018-08-17T11:07:48.335Z,99702.86
2018-08-17T11:10:16.221Z,99710.97
2018-08-17T11:12:45.701Z,99711.97
2018-08-17T11:15:13.381Z,99708.77
2018-08-17T11:17:42.206Z,99706.92
2018-08-17T11:20:09.983Z,99707.47
2018-08-17T11:22:37.708Z,99709.17
2018-08-17T11:25:06.698Z,99701.50
2018-08-17T11:27:34.531Z,99693.25
2018-08-17T11:30:02.224Z,99692.98
2018-08-17T11:32:29.949Z,99703.00
2018-08-17T11:34:57.603Z,99697.16
2018-08-17T11:37:25.213Z,99699.86
2018-08-17T11:39:58.745Z,99702.09
2018-08-17T11:42:26.628Z,99703.39
2018-08-17T11:44:54.207Z,99697.16
2018-08-17T11:47:22.557Z,99706.97
2018-08-17T11:49:50.123Z,99699.75
2018-08-17T11:52:17.734Z,99705.90
2018-08-17T11:54:45.344Z,99702.75
2018-08-17T11:57:13.962Z,99703.48
2018-08-17T11:59:49.230Z,99700.27
2018-08-17T12:02:17.928Z,99700.34
2018-08-17T12:04:46.679Z,99702.86
2018-08-17T12:07:14.333Z,99707.87
2018-08-17T12:09:57.369Z,99709.73
2018-08-17T12:12:24.849Z,99716.25
2018-08-17T12:14:52.473Z,99715.68
2018-08-17T12:17:20.265Z,99718.27
2018-08-17T12:19:47.864Z,99707.97
2018-08-17T12:22:15.429Z,99711.55
2018-08-17T12:24:43.088Z,99712.66
2018-08-17T12:27:11.999Z,99716.13
2018-08-17T12:29:40.024Z,99711.61
2018-08-17T12:32:08.353Z,99708.09
2018-08-17T12:34:36.341Z,99713.84
2018-08-17T12:37:04.209Z,99700.19
2018-08-17T12:39:32.044Z,99704.54
2018-08-17T12:41:59.659Z,99710.48
2018-08-17T12:44:27.292Z,99703.48
2018-08-17T12:46:55.966Z,99696.44
2018-08-17T12:49:23.957Z,99692.84
2018-08-17T12:51:51.632Z,99687.61
2018-08-17T12:54:25.161Z,99682.51
2018-08-17T12:56:53.191Z,99688.67
2018-08-17T12:59:20.827Z,99684.42
2018-08-17T13:01:48.547Z,99681.78
2018-08-17T13:04:16.767Z,99679.92
2018-08-17T13:06:44.920Z,99670.12
2018-08-17T13:09:12.706Z,99667.02
2018-08-17T13:11:47.799Z,99658.70
2018-08-17T13:14:15.608Z,99659.97
2018-08-17T13:16:43.609Z,99664.61
2018-08-17T13:19:11.406Z,99667.36
2018-08-17T13:21:38.976Z,99678.70
2018-08-17T13:24:06.737Z,99683.27
2018-08-17T13:26:34.325Z,99686.14
2018-08-17T13:29:02.077Z,99687.43
2018-08-17T13:31:30.807Z,99687.27
2018-08-17T13:33:58.577Z,99676.67
2018-08-17T13:36:26.374Z,99671.06
2018-08-17T13:38:54.181Z,99664.27
2018-08-17T13:41:21.866Z,99674.17
2018-08-17T13:43:50.043Z,99668.95
2018-08-17T13:46:17.671Z,99670.92
2018-08-17T13:48:45.299Z,99658.86
2018-08-17T13:51:13.277Z,99651.08
2018-08-17T13:53:40.961Z,99643.83
2018-08-17T13:56:08.631Z,99647.45
2018-08-17T13:58:36.635Z,99652.81
2018-08-17T14:01:04.357Z,99656.63
2018-08-17T14:03:32.952Z,99658.25
2018-08-17T14:06:00.687Z,99654.75
2018-08-17T14:08:28.367Z,99654.84
2018-08-17T14:10:56.000Z,99650.45
2018-08-17T14:13:23.686Z,99657.63
2018-08-17T14:15:51.291Z,99652.25
2018-08-17T14:18:18.892Z,99651.00
2018-08-17T14:20:46.547Z,99652.73
2018-08-17T14:23:14.159Z,99644.99
2018-08-17T14:25:41.834Z,99649.09
2018-08-17T14:28:09.540Z,99646.78
2018-08-17T14:30:37.214Z,99640.70
2018-08-17T14:33:05.034Z,99634.91
2018-08-17T14:35:32.709Z,99640.66
2018-08-17T14:38:00.334Z,99632.07
2018-08-17T14:40:28.013Z,99632.13
2018-08-17T14:42:55.628Z,99630.49
2018-08-17T14:45:23.708Z,99624.28
2018-08-17T14:47:51.288Z,99623.69
2018-08-17T14:50:18.989Z,99615.48
2018-08-17T14:52:46.628Z,99618.84
2018-08-17T14:55:14.288Z,99616.61
2018-08-17T14:57:41.860Z,99622.69
2018-08-17T15:00:12.524Z,99625.90
2018-08-17T15:02:40.210Z,99623.53
2018-08-17T15:05:09.996Z,99626.52
2018-08-17T15:07:37.749Z,99634.54
2018-08-17T15:10:06.792Z,99628.53
2018-08-17T15:12:34.448Z,99625.39
2018-08-17T15:15:02.119Z,99632.91
2018-08-17T15:17:29.803Z,99635.83
2018-08-17T15:19:57.479Z,99624.69
2018-08-17T15:22:25.119Z,99620.99
2018-08-17T15:24:53.005Z,99622.53
2018-08-17T15:27:20.637Z,99618.55
2018-08-17T15:29:48.309Z,99624.23
2018-08-17T15:32:15.992Z,99619.74
2018-08-17T15:34:43.585Z,99621.05
2018-08-17T15:37:11.237Z,99626.68
2018-08-17T15:39:38.936Z,99619.02
2018-08-17T15:42:07.427Z,99620.06
2018-08-17T15:44:34.999Z,99623.49
2018-08-17T15:47:02.590Z,99622.34
2018-08-17T15:49:35.365Z,99610.80
2018-08-17T15:52:04.332Z,99614.69
2018-08-17T15:54:32.026Z,99613.59
2018-08-17T15:56:59.950Z,99611.31
2018-08-17T15:59:27.678Z,99612.41
2018-08-17T16:01:55.448Z,99611.84
2018-08-17T16:04:23.106Z,99615.88
2018-08-17T16:06:50.809Z,99604.17
2018-08-17T16:09:18.510Z,99604.98
2018-08-17T16:11:46.150Z,99595.33
2018-08-17T16:14:13.821Z,99590.53
2018-08-17T16:16:41.453Z,99590.33
2018-08-17T16:19:09.205Z,99586.88
2018-08-17T16:21:36.842Z,99593.51
2018-08-17T16:24:05.425Z,99583.84
2018-08-17T16:26:33.396Z,99578.12
2018-08-17T16:29:01.733Z,99579.08
2018-08-17T16:31:35.090Z,99578.95
2018-08-17T16:34:02.881Z,99584.19
2018-08-17T16:36:30.721Z,99580.47
2018-08-17T16:38:58.465Z,99584.27
2018-08-17T16:41:26.087Z,99596.63
2018-08-17T16:43:53.753Z,99590.06
2018-08-17T16:46:21.494Z,99585.28
2018-08-17T16:48:49.104Z,99595.38
2018-08-17T16:51:16.758Z,99587.61
2018-08-17T16:53:44.352Z,99587.35
2018-08-17T16:56:11.949Z,99592.06
2018-08-17T16:58:40.479Z,99593.70
2018-08-17T17:01:08.153Z,99591.27
2018-08-17T17:03:35.811Z,99592.17
2018-08-17T17:06:04.519Z,99594.89
2018-08-17T17:08:32.461Z,99602.88
2018-08-17T17:11:00.939Z,99601.52
2018-08-17T17:13:28.690Z,99602.66
2018-08-17T17:15:56.301Z,99596.01
2018-08-17T17:18:24.042Z,99591.28
2018-08-17T17:20:51.653Z,99596.03
2018-08-17T17:23:19.223Z,99597.47
2018-08-17T17:25:46.928Z,99597.68
2018-08-17T17:28:15.456Z,99593.39
2018-08-17T17:30:49.215Z,99588.11
2018-08-17T17:33:16.861Z,99581.98
2018-08-17T17:35:44.871Z,99587.25
2018-08-17T17:38:12.695Z,99601.61
2018-08-17T17:40:40.813Z,99591.71
2018-08-17T17:43:08.768Z,99595.38
2018-08-17T17:45:36.859Z,99597.16
2018-08-17T17:48:04.658Z,99595.75
2018-08-17T17:50:33.278Z,99555.03
2018-08-17T17:53:01.827Z,99598.82
2018-08-17T17:55:40.615Z,99594.81
2018-08-17T17:58:08.689Z,99597.78
2018-08-17T18:00:36.323Z,99601.06
2018-08-17T18:03:03.965Z,99602.09
2018-08-17T18:05:31.519Z,99603.11
2018-08-17T18:08:05.677Z,99611.16
2018-08-17T18:10:33.304Z,99618.39
2018-08-17T18:13:01.142Z,99620.98
2018-08-17T18:15:28.829Z,99624.58
2018-08-17T18:17:57.567Z,99628.53
2018-08-17T18:20:25.269Z,99583.61
2018-08-17T18:22:53.001Z,99630.18
2018-08-17T18:25:20.769Z,99637.61
2018-08-17T18:27:48.958Z,99636.12
2018-08-17T18:30:16.614Z,99639.69
2018-08-17T18:32:44.598Z,99647.27
2018-08-17T18:35:12.317Z,99654.16
2018-08-17T18:37:40.020Z,99665.91
2018-08-17T18:40:09.794Z,99666.09
2018-08-17T18:42:37.531Z,99667.66
2018-08-17T18:45:05.547Z,99668.25
2018-08-17T18:47:33.230Z,99662.66
2018-08-17T18:50:00.871Z,99669.03
2018-08-17T18:52:28.609Z,99666.32
2018-08-17T18:54:56.345Z,99663.23
2018-08-17T18:57:23.989Z,99669.44
2018-08-17T18:59:51.676Z,99668.00
2018-08-17T19:02:19.331Z,99676.97
2018-08-17T19:04:46.990Z,99681.19
2018-08-17T19:07:14.655Z,99683.06
2018-08-17T19:09:42.831Z,99684.31
2018-08-17T19:12:10.490Z,99679.55
2018-08-17T19:14:46.250Z,99688.34
2018-08-17T19:17:19.950Z,99686.59
2018-08-17T19:19:48.031Z,99703.27
2018-08-17T19:22:15.840Z,99702.25
2018-08-17T19:24:43.490Z,99704.38
2018-08-17T19:27:20.996Z,99705.95
2018-08-17T19:29:49.940Z,99703.49
2018-08-17T19:32:17.653Z,99703.69
2018-08-17T19:34:45.287Z,99708.15
2018-08-17T19:37:13.103Z,99706.50
2018-08-17T19:39:44.415Z,99709.91
2018-08-17T19:42:12.366Z,99712.02
2018-08-17T19:44:40.312Z,99713.05
2018-08-17T19:47:08.507Z,99710.16
2018-08-17T19:49:36.335Z,99711.39
2018-08-17T19:52:04.141Z,99715.33
2018-08-17T19:54:31.869Z,99712.52
2018-08-17T19:56:59.640Z,99713.60
2018-08-17T19:59:27.383Z,99717.64
2018-08-17T20:01:55.098Z,99718.16
2018-08-17T20:04:22.741Z,99721.11
2018-08-17T20:06:50.394Z,99727.55
2018-08-17T20:09:18.149Z,99733.55
2018-08-17T20:11:45.818Z,99725.36
2018-08-17T20:14:13.453Z,99726.53
2018-08-17T20:16:41.208Z,99723.52
2018-08-17T20:19:09.003Z,99724.11
2018-08-17T20:21:36.686Z,99730.14
2018-08-17T20:24:04.459Z,99738.53
2018-08-17T20:26:32.331Z,99736.88
2018-08-17T20:28:59.726Z,99741.61
2018-08-17T20:31:27.358Z,99740.95
2018-08-17T20:33:55.106Z,99755.23
2018-08-17T20:36:23.256Z,99749.80
2018-08-17T20:38:50.934Z,99761.83
2018-08-17T20:41:18.815Z,99770.88
2018-08-17T20:43:46.989Z,99771.20
2018-08-17T20:46:14.655Z,99771.20
2018-08-17T20:48:49.084Z,99782.76
2018-08-17T20:51:22.768Z,99785.83
2018-08-17T20:53:59.038Z,99795.70
2018-08-17T20:56:27.094Z,99782.63
2018-08-17T20:58:54.940Z,99793.23
2018-08-17T21:01:22.956Z,99801.07
2018-08-17T21:03:50.823Z,99800.55
2018-08-17T21:06:18.493Z,99804.75
2018-08-17T21:08:46.085Z,99814.23
2018-08-17T21:11:13.789Z,99772.91
2018-08-17T21:13:48.211Z,99839.13
2018-08-17T21:16:15.909Z,99848.03
2018-08-17T21:18:43.662Z,99869.03
2018-08-17T21:21:11.327Z,99882.08
2018-08-17T21:23:39.186Z,99897.58
2018-08-17T21:26:06.844Z,99907.37
2018-08-17T21:28:34.450Z,99915.94
2018-08-17T21:31:02.095Z,99932.84
2018-08-17T21:33:29.904Z,99941.53
2018-08-17T21:35:57.618Z,99948.59
2018-08-17T21:38:25.283Z,99959.77
2018-08-17T21:40:52.938Z,99963.41
2018-08-17T21:43:20.501Z,99968.50
2018-08-17T21:45:49.770Z,99963.97
2018-08-17T21:48:21.960Z,99961.63
2018-08-17T21:50:49.706Z,99957.45
2018-08-17T21:53:17.323Z,99982.83
2018-08-17T21:55:44.920Z,99985.67
2018-08-17T21:58:12.608Z,99997.40
2018-08-17T22:00:40.318Z,100005.06
2018-08-17T22:03:18.101Z,100008.78
2018-08-17T22:05:45.657Z,100020.17
2018-08-17T22:08:13.253Z,100033.15
2018-08-17T22:10:40.825Z,100046.60
2018-08-17T22:13:26.254Z,100054.05
2018-08-17T22:15:53.889Z,100055.92
2018-08-17T22:18:21.519Z,100044.03
2018-08-17T22:20:49.152Z,100072.89
2018-08-17T22:23:16.741Z,100093.95
2018-08-17T22:25:44.391Z,100103.78
2018-08-17T22:28:12.026Z,100108.73
2018-08-17T22:30:39.721Z,100144.63
2018-08-17T22:33:07.313Z,100158.72
2018-08-17T22:35:35.957Z,100196.02
2018-08-17T22:38:03.489Z,100203.48
2018-08-17T22:40:31.127Z,100205.48
2018-08-17T22:42:58.785Z,100199.48
2018-08-17T22:45:26.413Z,100212.41
2018-08-17T22:47:54.019Z,100243.64
2018-08-17T22:50:21.677Z,100266.38
2018-08-17T22:52:49.247Z,100291.64
2018-08-17T22:55:16.921Z,100292.90
2018-08-17T22:57:44.439Z,100304.34
2018-08-17T23:00:19.179Z,100312.20
2018-08-17T23:02:48.165Z,100321.72
2018-08-17T23:05:17.690Z,100306.07
2018-08-17T23:07:45.324Z,100289.41
2018-08-17T23:10:16.603Z,100272.92
2018-08-17T23:12:45.257Z,100281.73
2018-08-17T23:15:13.112Z,100287.88
2018-08-17T23:17:43.475Z,100279.43
2018-08-17T23:20:11.117Z,100276.02
2018-08-17T23:22:47.482Z,100270.40
2018-08-17T23:25:15.193Z,100281.28
2018-08-17T23:27:42.830Z,100282.34
2018-08-17T23:30:10.492Z,100277.56
2018-08-17T23:32:38.137Z,100266.95
2018-08-17T23:35:06.208Z,100264.91
2018-08-17T23:37:33.749Z,100251.83
2018-08-17T23:40:01.294Z,100242.62
2018-08-17T23:42:28.888Z,100243.20
2018-08-17T23:44:56.469Z,100236.45
2018-08-17T23:47:24.053Z,100237.30
2018-08-17T23:49:51.705Z,100231.00
2018-08-17T23:52:19.283Z,100226.52
2018-08-17T23:54:46.873Z,100224.69
2018-08-17T23:57:15.184Z,100222.01
2018-08-17T23:59:42.750Z,100221.56
